Time;durP1;ratioP1;P1;durP2;ratioP2;P2;SDS_P1;SDS_P2;PMS_P1;PMS_P2;Temp;Humidity;BMP_temperature;BMP_pressure;BME280_temperature;BME280_humidity;BME280_pressure;Samples;Min_cycle;Max_cycle;Signal;HPM_P1;HPM_P2
2021/10/23 00:02:00;;;;;;;3.95;2.28;;;7.70;99.90;;;;;;5104404;28;20287;-83
2021/10/23 00:04:27;;;;;;;3.35;2.00;;;7.70;99.90;;;;;;5104733;28;20231;-84
2021/10/23 00:06:53;;;;;;;2.08;1.85;;;7.80;99.90;;;;;;5103660;28;20228;-84
2021/10/23 00:09:21;;;;;;;6.85;2.50;;;7.80;99.90;;;;;;5104140;28;20224;-83
2021/10/23 00:11:48;;;;;;;7.60;2.28;;;7.80;99.90;;;;;;5104615;28;20708;-83
2021/10/23 00:14:16;;;;;;;4.43;2.30;;;8.00;99.90;;;;;;5104860;28;20214;-83
2021/10/23 00:16:43;;;;;;;3.35;2.22;;;7.90;99.90;;;;;;5104296;28;20221;-84
2021/10/23 00:19:10;;;;;;;2.53;1.80;;;8.00;99.90;;;;;;5103422;28;20593;-83
2021/10/23 00:21:37;;;;;;;1.58;1.48;;;8.10;99.90;;;;;;5103994;28;20209;-82
2021/10/23 00:24:03;;;;;;;1.60;1.50;;;8.20;99.90;;;;;;5103990;28;20204;-84
2021/10/23 00:26:31;;;;;;;2.00;1.75;;;8.30;99.90;;;;;;5109505;28;20220;-82
2021/10/23 00:28:58;;;;;;;6.20;1.85;;;8.20;99.90;;;;;;5114912;28;20224;-82
2021/10/23 00:31:25;;;;;;;4.55;2.10;;;8.20;99.90;;;;;;5113969;28;20212;-83
2021/10/23 00:33:52;;;;;;;2.08;1.88;;;8.20;99.90;;;;;;5111111;28;20211;-84
2021/10/23 00:36:18;;;;;;;3.60;2.83;;;8.00;99.90;;;;;;5104233;28;20236;-84
2021/10/23 00:38:45;;;;;;;2.42;2.33;;;8.00;99.90;;;;;;5105150;28;20208;-84
2021/10/23 00:41:12;;;;;;;4.30;2.65;;;8.00;99.90;;;;;;5104502;28;20205;-84
2021/10/23 00:43:44;;;;;;;4.78;2.05;;;8.10;99.90;;;;;;5105272;28;20208;-84
2021/10/23 00:46:11;;;;;;;3.20;2.50;;;8.00;99.90;;;;;;5104681;28;20256;-84
2021/10/23 00:48:37;;;;;;;2.90;1.77;;;8.10;99.90;;;;;;5104706;28;20286;-84
2021/10/23 00:51:04;;;;;;;1.85;1.75;;;8.00;99.90;;;;;;5105195;28;20211;-84
2021/10/23 00:53:32;;;;;;;6.60;2.40;;;8.10;99.90;;;;;;5104221;28;20208;-84
2021/10/23 00:55:59;;;;;;;4.05;2.60;;;8.10;99.90;;;;;;5104151;28;20220;-84
2021/10/23 00:58:26;;;;;;;6.43;2.92;;;8.00;99.90;;;;;;5104224;28;20205;-84
2021/10/23 01:00:54;;;;;;;2.90;2.70;;;8.20;99.90;;;;;;5105072;28;20209;-84
2021/10/23 01:03:21;;;;;;;5.07;3.63;;;8.30;99.90;;;;;;5104274;28;20200;-84
2021/10/23 01:05:48;;;;;;;3.50;1.88;;;8.40;99.90;;;;;;5110289;28;20225;-82
2021/10/23 01:08:15;;;;;;;2.72;2.08;;;8.50;99.90;;;;;;5113158;28;20234;-83
2021/10/23 01:10:42;;;;;;;2.17;1.88;;;8.60;99.90;;;;;;5116869;28;20220;-81
2021/10/23 01:13:09;;;;;;;2.88;2.30;;;8.60;99.90;;;;;;5117432;28;20205;-81
2021/10/23 01:15:36;;;;;;;3.20;2.58;;;8.60;99.90;;;;;;5114030;28;20251;-83
2021/10/23 01:18:07;;;;;;;4.80;1.73;;;8.70;99.90;;;;;;5110592;28;20206;-84
2021/10/23 01:20:36;;;;;;;2.90;2.38;;;8.60;99.90;;;;;;5112053;28;20269;-83
2021/10/23 01:23:03;;;;;;;3.70;2.65;;;8.50;99.90;;;;;;5108502;28;20204;-84
2021/10/23 01:25:32;;;;;;;2.20;2.00;;;8.50;99.90;;;;;;5108050;28;20244;-83
2021/10/23 01:28:02;;;;;;;2.67;2.10;;;8.40;99.90;;;;;;5108157;28;20229;-82
2021/10/23 01:30:30;;;;;;;2.40;2.20;;;8.50;99.90;;;;;;5107988;28;20686;-84
2021/10/23 01:32:57;;;;;;;3.25;2.65;;;8.40;99.90;;;;;;5108241;28;20215;-83
2021/10/23 01:35:26;;;;;;;3.50;1.83;;;8.40;99.90;;;;;;5108977;28;20237;-84
2021/10/23 01:37:55;;;;;;;3.08;2.10;;;8.40;99.90;;;;;;5108236;28;20205;-83
2021/10/23 01:40:25;;;;;;;2.88;2.20;;;8.40;99.90;;;;;;5108356;28;20236;-84
2021/10/23 01:42:52;;;;;;;2.30;2.10;;;8.50;99.90;;;;;;5107438;28;20205;-84
2021/10/23 01:45:19;;;;;;;5.60;2.08;;;8.40;99.90;;;;;;5106758;28;20733;-83
2021/10/23 01:47:45;;;;;;;6.50;2.17;;;8.30;99.90;;;;;;5107441;28;20205;-84
2021/10/23 01:50:17;;;;;;;4.32;1.98;;;8.30;99.90;;;;;;5107138;28;20227;-84
2021/10/23 01:52:44;;;;;;;3.50;2.10;;;8.10;99.90;;;;;;5106985;28;20208;-85
2021/10/23 01:55:14;;;;;;;3.00;2.53;;;8.00;99.90;;;;;;5106981;28;20242;-82
2021/10/23 01:57:41;;;;;;;3.60;2.55;;;8.00;99.90;;;;;;5106891;28;20219;-83
2021/10/23 02:00:10;;;;;;;5.72;2.10;;;8.10;99.90;;;;;;5106632;28;20554;-83
2021/10/23 02:02:37;;;;;;;2.83;1.55;;;8.00;99.90;;;;;;5106936;28;20208;-83
2021/10/23 02:05:05;;;;;;;3.55;2.40;;;8.00;99.90;;;;;;5106861;28;20220;-82
2021/10/23 02:07:31;;;;;;;2.38;2.17;;;7.90;99.90;;;;;;5106363;28;20583;-83
2021/10/23 02:09:58;;;;;;;3.65;2.47;;;8.00;99.90;;;;;;5106787;28;20225;-84
2021/10/23 02:12:26;;;;;;;2.63;2.45;;;8.10;99.90;;;;;;5106622;28;20209;-83
2021/10/23 02:14:53;;;;;;;2.50;2.13;;;8.10;99.90;;;;;;5106872;28;20200;-83
2021/10/23 02:17:20;;;;;;;3.33;2.40;;;8.20;99.90;;;;;;5106386;28;20209;-83
2021/10/23 02:19:46;;;;;;;4.28;2.13;;;8.20;99.90;;;;;;5106954;28;20198;-84
2021/10/23 02:22:13;;;;;;;7.68;4.40;;;8.20;99.90;;;;;;5106492;28;20205;-83
2021/10/23 02:24:40;;;;;;;4.10;2.75;;;8.30;99.90;;;;;;5106489;28;20587;-84
2021/10/23 02:27:07;;;;;;;8.30;2.25;;;8.30;99.90;;;;;;5105159;28;20240;-84
2021/10/23 02:29:35;;;;;;;5.63;2.03;;;8.10;99.90;;;;;;5106525;28;20626;-83
2021/10/23 02:32:02;;;;;;;2.58;2.35;;;8.00;99.90;;;;;;5106948;28;20205;-83
2021/10/23 02:34:28;;;;;;;3.58;2.90;;;7.90;99.90;;;;;;5107015;28;20212;-83
2021/10/23 02:36:55;;;;;;;4.47;2.63;;;7.80;99.90;;;;;;5105626;28;20581;-83
2021/10/23 02:39:22;;;;;;;3.97;3.58;;;7.70;99.90;;;;;;5105641;28;20201;-81
2021/10/23 02:41:48;;;;;;;2.60;2.38;;;7.60;99.90;;;;;;5105920;28;20215;-84
2021/10/23 02:44:16;;;;;;;6.90;2.55;;;7.50;99.90;;;;;;5106030;28;20217;-83
2021/10/23 02:46:44;;;;;;;3.42;3.13;;;7.50;99.90;;;;;;5105859;28;20752;-82
2021/10/23 02:49:11;;;;;;;4.75;2.58;;;7.50;99.90;;;;;;5105868;28;20586;-83
2021/10/23 02:51:38;;;;;;;4.95;3.20;;;7.40;99.90;;;;;;5105923;28;20675;-84
2021/10/23 02:54:04;;;;;;;5.00;2.88;;;7.40;99.90;;;;;;5106401;28;20272;-84
2021/10/23 02:56:31;;;;;;;2.35;2.25;;;7.40;99.90;;;;;;5105416;28;20224;-84
2021/10/23 02:58:58;;;;;;;3.70;2.70;;;7.40;99.90;;;;;;5111306;22;20237;-76
2021/10/23 03:01:24;;;;;;;2.67;2.38;;;7.50;99.90;;;;;;5073624;28;20223;-77
2021/10/23 03:03:53;;;;;;;3.72;3.08;;;7.50;99.90;;;;;;5073543;28;20205;-76
2021/10/23 03:06:19;;;;;;;3.03;2.83;;;7.60;99.90;;;;;;5073199;28;20205;-77
2021/10/23 03:08:46;;;;;;;3.47;2.33;;;7.60;99.90;;;;;;5073067;28;20229;-77
2021/10/23 03:11:13;;;;;;;2.78;2.58;;;7.60;99.90;;;;;;5073399;28;20228;-77
2021/10/23 03:13:40;;;;;;;6.07;2.50;;;7.60;99.90;;;;;;5073365;28;20208;-77
2021/10/23 03:16:07;;;;;;;6.60;2.90;;;7.70;99.90;;;;;;5072925;28;20205;-76
2021/10/23 03:18:34;;;;;;;3.97;2.40;;;7.80;99.90;;;;;;5073166;28;20311;-77
2021/10/23 03:21:02;;;;;;;3.60;2.80;;;8.00;99.90;;;;;;5073036;28;20215;-77
2021/10/23 03:23:29;;;;;;;3.10;2.80;;;8.00;99.90;;;;;;5072867;28;20208;-77
2021/10/23 03:25:56;;;;;;;2.58;2.38;;;8.00;99.90;;;;;;5073024;28;20206;-77
2021/10/23 03:28:23;;;;;;;3.30;2.58;;;8.10;99.90;;;;;;5072965;28;20240;-77
2021/10/23 03:30:49;;;;;;;5.53;3.50;;;8.10;99.90;;;;;;5072877;28;20707;-77
2021/10/23 03:33:16;;;;;;;3.88;3.20;;;8.20;99.90;;;;;;5072888;28;20205;-77
2021/10/23 03:35:43;;;;;;;4.60;2.92;;;8.20;99.90;;;;;;5072426;28;20209;-76
2021/10/23 03:38:11;;;;;;;2.88;2.67;;;8.20;99.90;;;;;;5072249;28;20230;-76
2021/10/23 03:40:38;;;;;;;4.55;2.70;;;8.20;99.90;;;;;;5072663;28;20205;-77
2021/10/23 03:43:04;;;;;;;4.90;2.67;;;8.20;99.90;;;;;;5073036;28;20216;-77
2021/10/23 03:45:31;;;;;;;3.03;2.63;;;8.20;99.90;;;;;;5072485;28;20673;-77
2021/10/23 03:47:58;;;;;;;2.40;2.20;;;8.20;99.90;;;;;;5072677;28;20222;-77
2021/10/23 03:50:25;;;;;;;3.60;2.72;;;8.20;99.90;;;;;;5072609;28;20232;-77
2021/10/23 03:52:51;;;;;;;3.10;2.88;;;8.30;99.90;;;;;;5072645;28;20206;-77
2021/10/23 03:55:19;;;;;;;1.80;1.70;;;8.20;99.90;;;;;;5072289;28;20212;-77
2021/10/23 03:57:47;;;;;;;3.15;2.85;;;8.30;99.90;;;;;;5072595;28;20209;-77
2021/10/23 04:00:15;;;;;;;2.55;2.35;;;8.20;99.90;;;;;;5072615;28;20197;-77
2021/10/23 04:02:41;;;;;;;3.13;2.10;;;8.20;99.90;;;;;;5072335;28;20205;-77
2021/10/23 04:05:09;;;;;;;4.18;2.53;;;8.20;99.90;;;;;;5071927;28;20209;-77
2021/10/23 04:07:35;;;;;;;2.58;2.33;;;8.20;99.90;;;;;;5072351;28;20208;-77
2021/10/23 04:10:03;;;;;;;6.82;3.20;;;8.30;99.90;;;;;;5072225;28;20705;-77
2021/10/23 04:12:32;;;;;;;2.45;2.25;;;8.30;99.90;;;;;;5072276;28;20208;-77
2021/10/23 04:15:00;;;;;;;2.60;2.40;;;8.30;99.90;;;;;;5072144;28;20271;-77
2021/10/23 04:17:27;;;;;;;3.00;2.70;;;8.30;99.90;;;;;;5071822;28;20205;-77
2021/10/23 04:19:54;;;;;;;6.20;3.25;;;8.30;99.90;;;;;;5072209;28;20221;-77
2021/10/23 04:22:21;;;;;;;2.90;2.60;;;8.40;99.90;;;;;;5072191;28;20201;-77
2021/10/23 04:24:48;;;;;;;2.95;2.75;;;8.40;99.90;;;;;;5072150;28;20206;-77
2021/10/23 04:27:15;;;;;;;5.60;2.13;;;8.40;99.90;;;;;;5071803;28;20293;-77
2021/10/23 04:29:43;;;;;;;3.80;2.90;;;8.50;99.90;;;;;;5071799;28;20230;-77
2021/10/23 04:32:10;;;;;;;2.47;2.28;;;8.40;99.90;;;;;;5072124;28;20558;-77
2021/10/23 04:34:36;;;;;;;3.10;2.90;;;8.40;99.90;;;;;;5071814;28;20200;-77
2021/10/23 04:37:04;;;;;;;3.35;3.05;;;8.30;99.90;;;;;;5071549;28;20685;-77
2021/10/23 04:39:31;;;;;;;4.00;3.10;;;8.30;99.90;;;;;;5071832;28;20729;-77
2021/10/23 04:41:57;;;;;;;7.90;2.80;;;8.20;99.90;;;;;;5071931;28;20215;-77
2021/10/23 04:44:24;;;;;;;4.18;3.88;;;8.20;99.90;;;;;;5071814;28;20205;-77
2021/10/23 04:46:52;;;;;;;3.40;3.10;;;8.10;99.90;;;;;;5071730;28;20584;-76
2021/10/23 04:49:19;;;;;;;11.05;3.42;;;8.10;99.90;;;;;;5071947;28;20721;-76
2021/10/23 04:51:46;;;;;;;3.17;2.97;;;8.20;99.90;;;;;;5076268;28;20612;-76
2021/10/23 04:54:13;;;;;;;4.13;2.58;;;8.20;99.90;;;;;;5075955;28;20204;-76
2021/10/23 04:56:40;;;;;;;3.45;3.15;;;8.10;99.90;;;;;;5075617;28;20205;-77
2021/10/23 04:59:06;;;;;;;5.07;2.92;;;8.20;99.90;;;;;;5075574;28;20264;-77
2021/10/23 05:01:33;;;;;;;2.50;2.20;;;8.20;99.90;;;;;;5076025;28;20206;-76
2021/10/23 05:04:01;;;;;;;5.00;2.72;;;8.20;99.90;;;;;;5075902;28;20205;-76
2021/10/23 05:06:28;;;;;;;4.40;2.95;;;8.20;99.90;;;;;;5075261;28;20221;-76
2021/10/23 05:08:55;;;;;;;2.80;2.60;;;8.30;99.90;;;;;;5077437;28;20223;-77
2021/10/23 05:11:21;;;;;;;4.55;3.10;;;8.30;99.90;;;;;;5075502;28;20227;-77
2021/10/23 05:13:48;;;;;;;2.85;2.63;;;8.30;99.90;;;;;;5075400;28;20713;-77
2021/10/23 05:16:15;;;;;;;3.45;2.88;;;8.30;99.90;;;;;;5075381;28;20209;-77
2021/10/23 05:18:41;;;;;;;4.82;2.83;;;8.40;99.90;;;;;;5075563;28;20236;-78
2021/10/23 05:21:10;;;;;;;2.45;2.20;;;8.40;99.90;;;;;;5075541;28;20212;-78
2021/10/23 05:23:36;;;;;;;2.85;2.60;;;8.30;99.90;;;;;;5075448;28;20193;-78
2021/10/23 05:26:03;;;;;;;9.40;3.22;;;8.30;99.90;;;;;;5075142;28;20682;-78
2021/10/23 05:28:30;;;;;;;3.55;2.75;;;8.30;99.90;;;;;;5075223;28;20236;-77
2021/10/23 05:30:56;;;;;;;4.95;4.28;;;8.20;99.90;;;;;;5075466;28;20592;-77
2021/10/23 05:33:23;;;;;;;4.63;2.83;;;8.30;99.90;;;;;;5075385;28;20208;-77
2021/10/23 05:35:50;;;;;;;3.28;2.97;;;8.30;99.90;;;;;;5075045;28;20209;-77
2021/10/23 05:38:18;;;;;;;3.00;2.80;;;8.30;99.90;;;;;;5075018;28;20592;-77
2021/10/23 05:40:45;;;;;;;5.00;3.45;;;8.30;99.90;;;;;;5075139;28;20576;-78
2021/10/23 05:43:12;;;;;;;5.28;3.42;;;8.30;99.90;;;;;;5075283;28;20224;-78
2021/10/23 05:45:38;;;;;;;4.78;2.90;;;8.30;99.90;;;;;;5074718;28;20700;-78
2021/10/23 05:48:05;;;;;;;3.75;2.83;;;8.40;99.90;;;;;;5075013;28;20248;-78
2021/10/23 05:50:32;;;;;;;4.00;3.03;;;8.40;99.90;;;;;;5075146;28;20299;-78
2021/10/23 05:52:59;;;;;;;2.70;2.50;;;8.40;99.90;;;;;;5074882;28;20206;-78
2021/10/23 05:55:27;;;;;;;6.57;2.72;;;8.40;99.90;;;;;;5074552;28;20241;-78
2021/10/23 05:57:54;;;;;;;3.00;2.55;;;8.50;99.90;;;;;;5074918;28;20596;-78
2021/10/23 06:00:21;;;;;;;3.20;2.70;;;8.50;99.90;;;;;;5074542;28;20209;-78
2021/10/23 06:02:48;;;;;;;3.10;2.75;;;8.40;99.90;;;;;;5074801;28;20213;-78
2021/10/23 06:05:15;;;;;;;5.10;2.78;;;8.40;99.90;;;;;;5074399;28;20262;-78
2021/10/23 06:07:43;;;;;;;5.60;4.40;;;8.40;99.90;;;;;;5074710;28;20202;-78
2021/10/23 06:10:13;;;;;;;2.75;2.42;;;8.40;99.90;;;;;;5074714;28;20221;-78
2021/10/23 06:12:41;;;;;;;2.75;2.55;;;8.50;99.90;;;;;;5074739;28;20587;-78
2021/10/23 06:15:09;;;;;;;6.47;2.90;;;8.50;99.90;;;;;;5074808;28;20213;-78
2021/10/23 06:17:36;;;;;;;5.80;3.90;;;8.60;99.90;;;;;;5074380;28;20212;-78
2021/10/23 06:20:03;;;;;;;6.18;2.90;;;8.60;99.90;;;;;;5074653;28;20202;-78
2021/10/23 06:22:30;;;;;;;3.35;2.80;;;8.60;99.90;;;;;;5074275;28;20201;-78
2021/10/23 06:24:57;;;;;;;3.33;3.10;;;8.60;99.90;;;;;;5074631;28;20295;-78
2021/10/23 06:27:23;;;;;;;5.28;3.95;;;8.50;99.90;;;;;;5074052;28;20210;-78
2021/10/23 06:29:52;;;;;;;5.03;4.28;;;8.40;99.90;;;;;;5074218;28;20572;-78
2021/10/23 06:32:19;;;;;;;4.20;2.70;;;8.50;99.90;;;;;;5074292;28;20597;-78
2021/10/23 06:34:45;;;;;;;5.43;3.30;;;8.60;99.90;;;;;;5074019;28;20675;-78
2021/10/23 06:37:12;;;;;;;3.30;2.45;;;8.60;99.90;;;;;;5073743;28;20643;-78
2021/10/23 06:39:39;;;;;;;2.88;2.55;;;8.70;99.90;;;;;;5073949;28;20821;-78
2021/10/23 06:42:06;;;;;;;8.98;3.65;;;8.70;99.90;;;;;;5073911;28;20206;-78
2021/10/23 06:44:33;;;;;;;2.72;2.42;;;8.90;99.90;;;;;;5073971;28;20249;-78
2021/10/23 06:47:02;;;;;;;2.80;2.53;;;8.80;99.90;;;;;;5073690;28;20205;-78
2021/10/23 06:49:29;;;;;;;4.97;3.13;;;8.60;99.90;;;;;;5073742;28;20265;-78
2021/10/23 06:51:55;;;;;;;6.03;2.95;;;8.50;99.90;;;;;;5074069;28;20204;-78
2021/10/23 06:54:22;;;;;;;3.78;2.75;;;8.50;99.90;;;;;;5073860;28;20575;-78
2021/10/23 06:56:49;;;;;;;4.13;2.47;;;8.50;99.90;;;;;;5073324;28;20205;-78
2021/10/23 06:59:15;;;;;;;3.42;3.13;;;8.50;99.90;;;;;;5073552;28;20237;-78
2021/10/23 07:01:42;;;;;;;3.92;2.92;;;8.40;99.90;;;;;;5073578;28;20202;-78
2021/10/23 07:04:10;;;;;;;2.60;2.40;;;8.50;99.90;;;;;;5073594;28;20217;-77
2021/10/23 07:06:37;;;;;;;3.75;2.58;;;8.50;99.90;;;;;;5073180;28;20220;-77
2021/10/23 07:09:04;;;;;;;5.63;2.67;;;8.40;99.90;;;;;;5073536;28;20232;-77
2021/10/23 07:11:30;;;;;;;3.05;2.30;;;8.50;99.90;;;;;;5073240;28;20235;-77
2021/10/23 07:13:57;;;;;;;4.18;2.97;;;8.50;99.90;;;;;;5072784;28;20205;-77
2021/10/23 07:16:24;;;;;;;5.65;3.33;;;8.70;99.90;;;;;;5073030;28;20216;-77
2021/10/23 07:18:51;;;;;;;3.00;2.63;;;8.80;99.90;;;;;;5073097;28;20225;-77
2021/10/23 07:21:19;;;;;;;4.82;3.25;;;8.80;99.90;;;;;;5073388;28;20199;-77
2021/10/23 07:23:46;;;;;;;4.88;3.80;;;8.80;99.90;;;;;;5073330;28;20209;-77
2021/10/23 07:26:12;;;;;;;2.63;1.95;;;8.90;99.90;;;;;;5072752;28;20201;-77
2021/10/23 07:28:39;;;;;;;5.23;2.53;;;9.00;99.90;;;;;;5072978;28;20248;-77
2021/10/23 07:31:06;;;;;;;3.30;3.10;;;9.00;99.90;;;;;;5072731;28;21013;-77
2021/10/23 07:33:33;;;;;;;2.55;2.20;;;9.10;99.90;;;;;;5072830;28;20210;-77
2021/10/23 07:36:02;;;;;;;4.95;2.65;;;9.00;99.90;;;;;;5072611;28;20213;-77
2021/10/23 07:38:30;;;;;;;8.43;3.17;;;9.00;99.90;;;;;;5073013;28;20221;-77
2021/10/23 07:40:58;;;;;;;5.80;2.80;;;9.10;99.90;;;;;;5072998;28;20203;-77
2021/10/23 07:43:25;;;;;;;5.35;2.67;;;9.00;99.90;;;;;;5072865;28;20294;-77
2021/10/23 07:45:52;;;;;;;4.10;3.45;;;8.90;99.90;;;;;;5072473;28;20212;-77
2021/10/23 07:48:19;;;;;;;2.60;2.40;;;8.70;99.90;;;;;;5072785;28;20221;-77
2021/10/23 07:50:47;;;;;;;5.30;3.80;;;8.60;99.90;;;;;;5072597;28;20698;-77
2021/10/23 07:53:14;;;;;;;4.65;4.22;;;8.50;99.90;;;;;;5072690;28;20212;-77
2021/10/23 07:55:43;;;;;;;4.47;3.15;;;8.70;99.90;;;;;;5072224;28;20856;-77
2021/10/23 07:58:10;;;;;;;4.38;3.28;;;8.80;99.90;;;;;;5072289;28;20235;-77
2021/10/23 08:00:36;;;;;;;5.20;3.50;;;8.90;99.90;;;;;;5072441;28;20198;-77
2021/10/23 08:03:04;;;;;;;5.13;3.25;;;9.00;99.90;;;;;;5072673;28;20206;-77
2021/10/23 08:05:34;;;;;;;4.60;3.00;;;9.10;99.90;;;;;;5072245;28;20209;-77
2021/10/23 08:08:01;;;;;;;4.32;3.20;;;9.10;99.90;;;;;;5072386;28;20229;-77
2021/10/23 08:10:30;;;;;;;3.00;2.42;;;9.30;99.90;;;;;;5073115;28;20222;-77
2021/10/23 08:13:00;;;;;;;2.47;2.13;;;9.30;99.90;;;;;;5072349;28;20205;-77
2021/10/23 08:15:27;;;;;;;6.85;2.95;;;9.40;99.90;;;;;;5072269;28;21032;-77
2021/10/23 08:17:56;;;;;;;2.27;2.03;;;9.40;99.90;;;;;;5072270;28;20584;-78
2021/10/23 08:20:23;;;;;;;5.55;2.58;;;9.60;99.90;;;;;;5074917;28;20469;-77
2021/10/23 08:22:50;;;;;;;2.60;2.27;;;9.80;99.90;;;;;;5076005;28;20217;-77
2021/10/23 08:25:17;;;;;;;3.22;2.47;;;9.80;99.90;;;;;;5075555;28;20450;-77
2021/10/23 08:27:45;;;;;;;10.77;4.07;;;9.80;99.90;;;;;;5073136;28;20203;-78
2021/10/23 08:30:16;;;;;;;2.78;2.58;;;9.90;99.90;;;;;;5072966;28;20207;-78
2021/10/23 08:32:43;;;;;;;2.20;2.00;;;10.00;99.90;;;;;;5071699;28;20214;-78
2021/10/23 08:35:11;;;;;;;4.40;2.20;;;9.90;99.90;;;;;;5076911;28;20214;-78
2021/10/23 08:37:38;;;;;;;2.10;2.00;;;10.00;99.90;;;;;;5076149;28;20454;-78
2021/10/23 08:40:07;;;;;;;5.80;2.53;;;10.00;99.90;;;;;;5066955;28;20228;-78
2021/10/23 08:42:35;;;;;;;4.40;2.40;;;9.90;99.90;;;;;;5067317;28;20450;-79
2021/10/23 08:45:06;;;;;;;3.37;2.73;;;9.90;99.90;;;;;;5071488;28;20442;-78
2021/10/23 08:47:37;;;;;;;2.27;2.00;;;9.80;99.90;;;;;;5062908;28;20454;-78
2021/10/23 08:50:05;;;;;;;4.50;3.05;;;9.70;99.90;;;;;;5060287;28;20551;-79
2021/10/23 08:52:32;;;;;;;3.10;2.80;;;9.80;99.90;;;;;;5064659;28;20218;-79
2021/10/23 08:54:59;;;;;;;4.03;2.40;;;9.90;99.90;;;;;;5061255;28;20524;-79
2021/10/23 08:57:28;;;;;;;3.00;2.80;;;10.00;99.90;;;;;;5061273;28;20585;-79
2021/10/23 08:59:54;;;;;;;3.23;3.00;;;10.00;99.90;;;;;;5044258;22;20637;-79
2021/10/23 09:02:23;;;;;;;2.45;2.35;;;10.10;99.90;;;;;;5024005;28;20452;-79
2021/10/23 09:04:52;;;;;;;3.75;2.58;;;10.10;99.90;;;;;;5023961;28;20574;-79
2021/10/23 09:07:21;;;;;;;5.80;4.47;;;10.20;99.90;;;;;;5021040;28;20302;-80
2021/10/23 09:09:50;;;;;;;3.93;3.63;;;10.20;99.90;;;;;;5016632;28;20483;-81
2021/10/23 09:12:22;;;;;;;3.40;3.10;;;10.30;99.90;;;;;;5016852;28;20488;-80
2021/10/23 09:14:58;;;;;;;4.90;2.95;;;10.40;99.90;;;;;;5016439;28;20444;-80
2021/10/23 09:17:25;;;;;;;4.27;3.07;;;10.60;99.90;;;;;;5015929;28;20235;-79
2021/10/23 09:19:55;;;;;;;4.43;2.97;;;10.70;99.90;;;;;;5015669;28;20473;-80
2021/10/23 09:22:27;;;;;;;4.17;3.77;;;10.90;99.90;;;;;;5001334;28;20453;-80
2021/10/23 09:25:16;;;;;;;4.10;3.73;;;11.00;99.90;;;;;;5016838;28;20523;-80
2021/10/23 09:27:54;;;;;;;3.73;3.40;;;11.20;99.90;;;;;;5016830;28;20452;-79
2021/10/23 09:30:24;;;;;;;4.50;3.77;;;11.20;99.90;;;;;;5015642;28;20969;-79
2021/10/23 09:32:52;;;;;;;3.50;2.87;;;11.10;99.90;;;;;;5018448;28;20467;-79
2021/10/23 09:35:23;;;;;;;4.33;2.77;;;11.30;99.90;;;;;;5015482;28;20463;-79
2021/10/23 09:37:53;;;;;;;2.60;2.47;;;11.20;99.90;;;;;;5018709;28;20812;-79
2021/10/23 09:40:21;;;;;;;2.43;2.33;;;11.50;99.90;;;;;;5019061;28;20527;-79
2021/10/23 09:43:03;;;;;;;3.27;3.00;;;11.70;99.90;;;;;;5019206;28;20460;-79
2021/10/23 09:45:30;;;;;;;4.00;3.40;;;11.80;99.90;;;;;;5018945;28;20457;-79
2021/10/23 09:48:06;;;;;;;4.07;3.80;;;12.00;99.90;;;;;;5019379;28;20450;-78
2021/10/23 09:50:35;;;;;;;2.47;2.27;;;12.10;99.90;;;;;;5019153;28;20436;-79
2021/10/23 09:53:04;;;;;;;2.23;2.13;;;12.00;99.90;;;;;;5018780;28;20972;-79
2021/10/23 09:55:34;;;;;;;3.90;3.03;;;12.00;99.90;;;;;;5018505;28;20476;-79
2021/10/23 09:58:10;;;;;;;4.03;3.10;;;11.90;99.90;;;;;;5018937;28;20454;-79
2021/10/23 10:00:38;;;;;;;2.30;1.63;;;12.20;99.90;;;;;;5019461;28;20938;-79
2021/10/23 10:03:06;;;;;;;2.47;2.27;;;12.60;99.90;;;;;;5019252;28;20478;-79
2021/10/23 10:05:34;;;;;;;3.60;2.53;;;12.90;99.20;;;;;;5018115;28;21120;-79
2021/10/23 10:08:06;;;;;;;2.60;2.30;;;13.00;97.30;;;;;;5018455;28;20460;-80
2021/10/23 10:10:35;;;;;;;2.63;2.40;;;12.90;98.00;;;;;;5018622;28;20449;-79
2021/10/23 10:13:03;;;;;;;10.50;3.00;;;12.90;97.60;;;;;;5017505;28;20508;-79
2021/10/23 10:15:30;;;;;;;2.60;2.03;;;12.80;97.90;;;;;;5019029;28;20453;-79
2021/10/23 10:18:01;;;;;;;3.00;2.80;;;12.90;97.60;;;;;;5018941;28;20454;-79
2021/10/23 10:20:29;;;;;;;3.20;2.50;;;12.90;97.60;;;;;;5019146;28;20453;-79
2021/10/23 10:22:57;;;;;;;3.73;2.70;;;12.80;96.80;;;;;;5018480;28;20540;-79
2021/10/23 10:25:26;;;;;;;2.50;2.37;;;12.60;96.80;;;;;;5019386;28;20458;-79
2021/10/23 10:27:53;;;;;;;6.17;2.10;;;12.60;97.00;;;;;;5019687;28;20545;-80
2021/10/23 10:30:24;;;;;;;4.20;2.20;;;12.50;97.70;;;;;;5019004;28;20485;-80
2021/10/23 10:32:52;;;;;;;7.37;2.67;;;12.40;98.00;;;;;;5019410;28;20507;-80
2021/10/23 10:35:54;;;;;;;4.67;2.97;;;12.20;98.60;;;;;;5019178;28;20466;-81
2021/10/23 10:38:43;;;;;;;3.40;3.20;;;12.00;99.00;;;;;;5019317;28;20476;-80
2021/10/23 10:44:16;;;;;;;3.47;2.73;;;11.70;99.60;;;;;;5019075;28;20521;-79
2021/10/23 10:47:11;;;;;;;3.37;2.87;;;11.80;99.80;;;;;;5017611;28;20457;-79
2021/10/23 10:49:53;;;;;;;6.07;4.20;;;11.70;99.90;;;;;;4999504;28;20474;-79
2021/10/23 10:52:53;;;;;;;3.87;3.47;;;11.60;99.90;;;;;;5017250;28;20536;-79
2021/10/23 10:55:22;;;;;;;4.53;4.20;;;11.50;99.90;;;;;;5018243;28;20549;-80
2021/10/23 10:58:05;;;;;;;3.17;2.97;;;11.30;99.90;;;;;;5015307;28;20456;-79
2021/10/23 11:01:08;;;;;;;2.80;2.40;;;11.30;99.50;;;;;;5015433;28;20527;-79
2021/10/23 11:03:37;;;;;;;2.57;2.07;;;11.30;98.80;;;;;;5016379;28;20551;-79
2021/10/23 11:06:44;;;;;;;2.53;2.33;;;11.40;98.00;;;;;;5014532;28;20865;-79
2021/10/23 11:09:39;;;;;;;3.20;2.47;;;11.50;98.10;;;;;;5015381;28;20491;-79
2021/10/23 11:12:33;;;;;;;3.23;2.50;;;11.80;98.10;;;;;;5014555;28;20486;-79
2021/10/23 11:15:00;;;;;;;2.70;2.50;;;12.00;97.80;;;;;;5016545;28;20808;-79
2021/10/23 11:17:28;;;;;;;4.10;3.83;;;12.20;98.70;;;;;;5016585;28;20832;-80
2021/10/23 11:19:59;;;;;;;3.80;3.37;;;13.00;99.20;;;;;;5016978;28;20847;-79
2021/10/23 11:22:29;;;;;;;3.40;3.10;;;13.90;98.00;;;;;;5015991;28;20487;-80
2021/10/23 11:25:02;;;;;;;4.97;2.83;;;15.10;96.60;;;;;;5015791;28;20461;-80
2021/10/23 11:27:37;;;;;;;3.23;2.73;;;16.10;94.60;;;;;;5016287;28;20459;-80
2021/10/23 11:30:13;;;;;;;2.67;2.00;;;16.90;92.60;;;;;;5016445;28;20823;-81
2021/10/23 11:32:44;;;;;;;3.43;2.70;;;17.30;88.90;;;;;;5016133;28;20490;-79
2021/10/23 11:35:12;;;;;;;1.90;1.80;;;17.80;87.60;;;;;;5016014;28;20824;-79
2021/10/23 11:37:39;;;;;;;3.87;2.13;;;18.30;83.80;;;;;;5016441;28;20454;-80
2021/10/23 11:40:08;;;;;;;1.90;1.80;;;17.90;81.50;;;;;;5016122;28;20559;-79
2021/10/23 11:42:37;;;;;;;2.20;2.10;;;17.40;80.80;;;;;;5016531;28;20454;-79
2021/10/23 11:45:07;;;;;;;1.80;1.70;;;17.10;79.20;;;;;;5017571;28;20449;-82
2021/10/23 11:47:35;;;;;;;2.70;2.20;;;16.60;80.50;;;;;;5018312;28;20449;-79
2021/10/23 11:50:03;;;;;;;2.63;2.07;;;16.30;83.30;;;;;;5018903;28;20483;-81
2021/10/23 11:52:32;;;;;;;1.97;1.77;;;16.30;84.40;;;;;;5017625;28;20849;-80
2021/10/23 11:54:59;;;;;;;2.63;1.90;;;16.30;84.10;;;;;;5017338;28;21783;-81
2021/10/23 11:57:34;;;;;;;2.27;1.70;;;16.20;84.40;;;;;;5017039;28;20798;-80
2021/10/23 12:00:03;;;;;;;4.77;2.33;;;16.20;85.20;;;;;;5017687;28;20483;-81
2021/10/23 12:02:48;;;;;;;3.03;2.73;;;16.20;85.10;;;;;;5017612;28;20475;-82
2021/10/23 12:05:21;;;;;;;3.30;1.87;;;16.40;87.00;;;;;;5016286;28;20455;-81
2021/10/23 12:07:49;;;;;;;3.23;2.43;;;16.60;84.30;;;;;;5017814;28;20444;-81
2021/10/23 12:10:16;;;;;;;2.10;2.00;;;16.80;85.40;;;;;;5017221;28;20479;-81
2021/10/23 12:12:43;;;;;;;2.13;1.90;;;17.40;83.50;;;;;;5017645;28;20538;-81
2021/10/23 12:15:18;;;;;;;2.03;1.80;;;17.80;82.20;;;;;;5017657;28;20461;-81
2021/10/23 12:17:56;;;;;;;2.47;2.27;;;18.00;80.00;;;;;;5017840;28;20468;-81
2021/10/23 12:20:23;;;;;;;4.13;3.50;;;17.10;77.00;;;;;;5017119;28;20892;-81
2021/10/23 12:22:50;;;;;;;4.07;3.37;;;16.50;78.80;;;;;;5017138;28;20443;-81
2021/10/23 12:25:16;;;;;;;3.20;2.73;;;15.90;80.10;;;;;;5016903;28;20450;-81
2021/10/23 12:27:43;;;;;;;2.20;2.00;;;16.00;82.30;;;;;;5017689;28;20455;-81
2021/10/23 12:30:13;;;;;;;6.00;2.20;;;15.80;82.00;;;;;;5017639;28;20476;-81
2021/10/23 12:32:43;;;;;;;4.40;2.13;;;15.20;80.80;;;;;;5017112;28;20478;-81
2021/10/23 12:35:12;;;;;;;3.23;1.90;;;15.00;82.30;;;;;;5017297;28;20458;-81
2021/10/23 12:37:49;;;;;;;2.53;2.30;;;14.90;82.90;;;;;;5017425;28;20482;-81
2021/10/23 12:40:28;;;;;;;3.20;2.40;;;14.70;83.60;;;;;;5017545;28;20474;-80
2021/10/23 12:43:04;;;;;;;4.70;2.20;;;14.40;84.20;;;;;;5016893;28;20449;-81
2021/10/23 12:45:33;;;;;;;2.70;2.17;;;14.20;84.80;;;;;;5016991;28;20890;-82
2021/10/23 12:48:03;;;;;;;2.27;1.90;;;14.30;85.70;;;;;;5016425;28;20454;-81
2021/10/23 12:50:30;;;;;;;4.27;2.00;;;14.20;86.10;;;;;;5017070;28;20450;-81
2021/10/23 12:52:57;;;;;;;2.50;2.03;;;14.50;87.10;;;;;;5016770;28;20486;-82
2021/10/23 12:55:25;;;;;;;3.33;2.20;;;14.50;85.00;;;;;;5016805;28;20467;-81
2021/10/23 12:57:52;;;;;;;2.80;2.17;;;14.40;83.30;;;;;;5017227;28;20450;-81
2021/10/23 13:00:19;;;;;;;3.50;2.23;;;14.70;84.90;;;;;;5016621;28;20468;-81
2021/10/23 13:02:46;;;;;;;3.70;1.93;;;15.30;83.20;;;;;;5016496;28;20818;-81
2021/10/23 13:05:14;;;;;;;2.30;2.10;;;16.20;83.20;;;;;;5017326;28;20454;-80